ACA18A KLAX-PANC
Flight info
| Callsign | ACA18A |
|---|---|
| Flight time | N/A |
| Altitude | 41000 |
| Route | KLAX LADYJ4 CSTRO DCT NURAY DCT LMT DCT UBG DCT TOU DCT PRYCE DCT BKA DCT LAIRE DCT JOH PTERS3 PANC |
| Aircraft | B789/H-L/FMC |
Departure
| Time | 2026-04-26 03:29 |
|---|---|
| Airport | Los Angeles International Airport (KLAX) |
Arrival
| Time | N/A |
|---|---|
| Airport | Ted Stevens Anchorage International Airport (PANC) |
| Time | Latitude | Longitude | Altitude | Speed | Heading |
|---|---|---|---|---|---|
| 2026-04-26 03:09 | 33.94401 | -118.41147 | 131 ft | 0 kts | 84° |
| 2026-04-26 03:21 | 33.94401 | -118.41154 | 126 ft | 3 kts | 84° |
| 2026-04-26 03:21 | 33.94397 | -118.41190 | 129 ft | 5 kts | 84° |
| 2026-04-26 03:21 | 33.94394 | -118.41211 | 131 ft | 2 kts | 69° |
| 2026-04-26 03:22 | 33.94386 | -118.41225 | 131 ft | 2 kts | 34° |
| 2026-04-26 03:22 | 33.94372 | -118.41233 | 131 ft | 3 kts | 11° |
| 2026-04-26 03:22 | 33.94353 | -118.41234 | 131 ft | 0 kts | 353° |
| 2026-04-26 03:24 | 33.94354 | -118.41234 | 131 ft | 0 kts | 353° |
| 2026-04-26 03:24 | 33.94368 | -118.41236 | 127 ft | 5 kts | 353° |
| 2026-04-26 03:24 | 33.94431 | -118.41245 | 129 ft | 13 kts | 353° |
| 2026-04-26 03:25 | 33.94542 | -118.41262 | 128 ft | 18 kts | 353° |
| 2026-04-26 03:25 | 33.94667 | -118.41280 | 128 ft | 18 kts | 353° |
| 2026-04-26 03:25 | 33.94775 | -118.41278 | 127 ft | 13 kts | 32° |
| 2026-04-26 03:25 | 33.94803 | -118.41191 | 127 ft | 12 kts | 84° |
| 2026-04-26 03:26 | 33.94814 | -118.41084 | 130 ft | 14 kts | 83° |
| 2026-04-26 03:26 | 33.94827 | -118.40956 | 128 ft | 16 kts | 83° |
| 2026-04-26 03:26 | 33.94842 | -118.40820 | 131 ft | 16 kts | 83° |
| 2026-04-26 03:26 | 33.94856 | -118.40683 | 131 ft | 17 kts | 83° |
| 2026-04-26 03:27 | 33.94870 | -118.40545 | 129 ft | 17 kts | 83° |
| 2026-04-26 03:27 | 33.94884 | -118.40407 | 130 ft | 17 kts | 83° |
| 2026-04-26 03:27 | 33.94899 | -118.40269 | 128 ft | 16 kts | 83° |
| 2026-04-26 03:27 | 33.94913 | -118.40133 | 129 ft | 16 kts | 83° |
| 2026-04-26 03:28 | 33.94927 | -118.39998 | 131 ft | 15 kts | 81° |
| 2026-04-26 03:28 | 33.94976 | -118.39917 | 126 ft | 9 kts | 9° |
| 2026-04-26 03:28 | 33.95032 | -118.39932 | 127 ft | 6 kts | 314° |
| 2026-04-26 03:28 | 33.95040 | -118.39970 | 127 ft | 4 kts | 264° |
| 2026-04-26 03:29 | 33.95030 | -118.40081 | 131 ft | 37 kts | 263° |
| 2026-04-26 03:29 | 33.94967 | -118.40691 | 130 ft | 109 kts | 263° |
| 2026-04-26 03:29 | 33.94848 | -118.41853 | 150 ft | 168 kts | 262° |
| 2026-04-26 03:29 | 33.94672 | -118.43304 | 811 ft | 180 kts | 260° |
| 2026-04-26 03:30 | 33.94517 | -118.44920 | 1570 ft | 206 kts | 264° |
| 2026-04-26 03:30 | 33.94367 | -118.46681 | 2410 ft | 220 kts | 266° |
| 2026-04-26 03:30 | 33.94338 | -118.48598 | 3099 ft | 232 kts | 268° |
| 2026-04-26 03:30 | 33.94247 | -118.50623 | 3666 ft | 248 kts | 265° |
| 2026-04-26 03:31 | 33.94047 | -118.52679 | 4630 ft | 248 kts | 265° |
| 2026-04-26 03:31 | 33.93909 | -118.54773 | 5602 ft | 250 kts | 265° |
| 2026-04-26 03:31 | 33.93763 | -118.56875 | 6629 ft | 253 kts | 265° |
| 2026-04-26 03:31 | 33.93594 | -118.58997 | 7576 ft | 258 kts | 264° |
| 2026-04-26 03:32 | 33.93545 | -118.61197 | 7980 ft | 269 kts | 280° |
| 2026-04-26 03:32 | 33.94227 | -118.63303 | 7983 ft | 270 kts | 300° |
| 2026-04-26 03:32 | 33.95521 | -118.64933 | 7980 ft | 273 kts | 322° |
| 2026-04-26 03:32 | 33.97133 | -118.66143 | 7981 ft | 273 kts | 324° |
| 2026-04-26 03:33 | 33.98792 | -118.67278 | 7964 ft | 276 kts | 335° |
| 2026-04-26 03:33 | 34.00643 | -118.67621 | 8469 ft | 273 kts | 355° |
| 2026-04-26 03:33 | 34.02579 | -118.67564 | 9136 ft | 285 kts | 358° |
| 2026-04-26 03:33 | 34.04595 | -118.67410 | 9806 ft | 293 kts | 359° |
| 2026-04-26 03:34 | 34.06690 | -118.67252 | 9977 ft | 311 kts | 359° |
| 2026-04-26 03:34 | 34.08807 | -118.66895 | 10101 ft | 305 kts | 12° |
| 2026-04-26 03:34 | 34.10889 | -118.66344 | 10732 ft | 310 kts | 4° |
| 2026-04-26 03:34 | 34.13066 | -118.65945 | 11384 ft | 323 kts | 5° |
| 2026-04-26 03:35 | 34.15318 | -118.65445 | 12042 ft | 335 kts | 7° |
| 2026-04-26 03:35 | 34.17644 | -118.64855 | 12730 ft | 346 kts | 7° |
| 2026-04-26 03:35 | 34.20038 | -118.64269 | 13401 ft | 356 kts | 6° |
| 2026-04-26 03:35 | 34.22522 | -118.63694 | 13937 ft | 369 kts | 6° |
| 2026-04-26 03:36 | 34.25091 | -118.63466 | 14452 ft | 371 kts | 349° |
| 2026-04-26 03:36 | 34.27661 | -118.63960 | 14974 ft | 379 kts | 345° |
| 2026-04-26 03:36 | 34.29390 | -118.64352 | 15318 ft | 385 kts | 344° |
| 2026-04-26 03:36 | 34.32098 | -118.65015 | 15370 ft | 409 kts | 344° |
| 2026-04-26 03:37 | 34.34967 | -118.65687 | 15591 ft | 425 kts | 345° |
| 2026-04-26 03:37 | 34.37881 | -118.66322 | 16321 ft | 427 kts | 345° |
| 2026-04-26 03:37 | 34.41769 | -118.67200 | 17136 ft | 432 kts | 344° |
| 2026-04-26 03:37 | 34.43790 | -118.67628 | 17546 ft | 436 kts | 347° |
| 2026-04-26 03:38 | 34.46807 | -118.68189 | 18126 ft | 439 kts | 346° |
| 2026-04-26 03:38 | 34.49831 | -118.68818 | 18669 ft | 443 kts | 346° |
| 2026-04-26 03:38 | 34.52689 | -118.69391 | 19146 ft | 447 kts | 346° |
| 2026-04-26 03:38 | 34.55770 | -118.69975 | 19675 ft | 450 kts | 347° |
| 2026-04-26 03:39 | 34.58872 | -118.70569 | 20172 ft | 453 kts | 346° |
| 2026-04-26 03:39 | 34.61964 | -118.71181 | 20667 ft | 456 kts | 346° |
| 2026-04-26 03:39 | 34.65112 | -118.71805 | 21157 ft | 459 kts | 346° |
| 2026-04-26 03:39 | 34.68279 | -118.72423 | 21590 ft | 463 kts | 347° |
| 2026-04-26 03:40 | 34.71419 | -118.73256 | 22006 ft | 460 kts | 337° |
| 2026-04-26 03:40 | 34.74351 | -118.74778 | 22436 ft | 457 kts | 327° |
| 2026-04-26 03:40 | 34.76229 | -118.76087 | 22691 ft | 458 kts | 326° |
| 2026-04-26 03:40 | 34.78863 | -118.77881 | 23090 ft | 461 kts | 327° |
| 2026-04-26 03:41 | 34.81676 | -118.79796 | 23476 ft | 464 kts | 327° |
| 2026-04-26 03:41 | 34.84495 | -118.81735 | 23813 ft | 466 kts | 326° |
| 2026-04-26 03:41 | 34.87322 | -118.83688 | 24114 ft | 469 kts | 326° |
| 2026-04-26 03:41 | 34.90177 | -118.85651 | 24437 ft | 471 kts | 326° |
| 2026-04-26 03:42 | 34.93040 | -118.87618 | 24728 ft | 474 kts | 326° |
| 2026-04-26 03:42 | 34.95906 | -118.89592 | 25014 ft | 476 kts | 326° |
| 2026-04-26 03:42 | 34.98811 | -118.91597 | 25311 ft | 479 kts | 326° |
| 2026-04-26 03:42 | 35.01696 | -118.93589 | 25598 ft | 481 kts | 326° |
| 2026-04-26 03:43 | 35.04620 | -118.95607 | 25883 ft | 484 kts | 326° |
| 2026-04-26 03:43 | 35.07550 | -118.97632 | 26164 ft | 486 kts | 326° |
| 2026-04-26 03:43 | 35.10501 | -118.99674 | 26440 ft | 488 kts | 326° |
| 2026-04-26 03:43 | 35.13475 | -119.01734 | 26706 ft | 491 kts | 326° |
| 2026-04-26 03:44 | 35.16451 | -119.03796 | 26973 ft | 493 kts | 326° |
| 2026-04-26 03:44 | 35.19444 | -119.05871 | 27226 ft | 496 kts | 326° |
| 2026-04-26 03:44 | 35.22452 | -119.07959 | 27465 ft | 498 kts | 327° |
| 2026-04-26 03:44 | 35.25475 | -119.10059 | 27714 ft | 500 kts | 327° |
| 2026-04-26 03:45 | 35.28511 | -119.12171 | 27952 ft | 502 kts | 327° |
| 2026-04-26 03:45 | 35.31555 | -119.14290 | 28180 ft | 505 kts | 327° |
| 2026-04-26 03:45 | 35.34574 | -119.16393 | 28390 ft | 507 kts | 327° |
| 2026-04-26 03:45 | 35.37647 | -119.18535 | 28607 ft | 509 kts | 327° |
| 2026-04-26 03:46 | 35.40738 | -119.20692 | 28816 ft | 511 kts | 327° |
| 2026-04-26 03:46 | 35.43839 | -119.22833 | 28995 ft | 514 kts | 329° |
| 2026-04-26 03:46 | 35.47177 | -119.24487 | 29170 ft | 520 kts | 338° |
| 2026-04-26 03:47 | 35.54083 | -119.27250 | 29531 ft | 524 kts | 339° |
| 2026-04-26 03:47 | 35.57559 | -119.28625 | 29711 ft | 526 kts | 339° |
| 2026-04-26 03:47 | 35.61026 | -119.30028 | 30135 ft | 521 kts | 339° |
| 2026-04-26 03:47 | 35.64453 | -119.31417 | 30614 ft | 516 kts | 339° |
| 2026-04-26 03:48 | 35.67847 | -119.32777 | 31086 ft | 511 kts | 339° |
| 2026-04-26 03:48 | 35.71221 | -119.34128 | 31563 ft | 506 kts | 339° |
| 2026-04-26 03:48 | 35.74546 | -119.35470 | 32042 ft | 501 kts | 339° |
| 2026-04-26 03:48 | 35.77807 | -119.36789 | 32522 ft | 497 kts | 339° |
| 2026-04-26 03:49 | 35.81075 | -119.38108 | 33013 ft | 493 kts | 339° |
| 2026-04-26 03:49 | 35.84318 | -119.39416 | 33513 ft | 488 kts | 338° |
| 2026-04-26 03:49 | 35.87555 | -119.40726 | 33760 ft | 490 kts | 338° |
| 2026-04-26 03:49 | 35.90794 | -119.42039 | 33988 ft | 491 kts | 338° |
| 2026-04-26 03:50 | 35.94045 | -119.43356 | 34195 ft | 492 kts | 338° |
| 2026-04-26 03:50 | 35.97307 | -119.44677 | 34399 ft | 493 kts | 338° |
| 2026-04-26 03:50 | 36.00562 | -119.45997 | 34622 ft | 494 kts | 338° |
| 2026-04-26 03:50 | 36.03831 | -119.47326 | 34850 ft | 494 kts | 338° |
| 2026-04-26 03:51 | 36.07095 | -119.48653 | 35081 ft | 494 kts | 338° |
| 2026-04-26 03:51 | 36.10365 | -119.49983 | 35314 ft | 495 kts | 338° |
| 2026-04-26 03:51 | 36.13636 | -119.51314 | 35540 ft | 495 kts | 338° |
| 2026-04-26 03:51 | 36.16908 | -119.52648 | 35776 ft | 494 kts | 338° |
| 2026-04-26 03:52 | 36.20179 | -119.53982 | 36016 ft | 494 kts | 338° |
| 2026-04-26 03:52 | 36.23443 | -119.55315 | 36258 ft | 494 kts | 338° |
| 2026-04-26 03:52 | 36.26716 | -119.56652 | 36503 ft | 493 kts | 338° |
| 2026-04-26 03:52 | 36.29975 | -119.57985 | 36742 ft | 493 kts | 338° |
| 2026-04-26 03:53 | 36.33191 | -119.59301 | 36982 ft | 492 kts | 338° |
| 2026-04-26 03:53 | 36.36440 | -119.60633 | 37231 ft | 491 kts | 338° |
| 2026-04-26 03:53 | 36.39688 | -119.61965 | 37479 ft | 491 kts | 338° |
| 2026-04-26 03:53 | 36.42930 | -119.63295 | 37734 ft | 490 kts | 338° |
| 2026-04-26 03:54 | 36.46166 | -119.64624 | 37984 ft | 489 kts | 338° |
| 2026-04-26 03:54 | 36.49392 | -119.65951 | 38232 ft | 488 kts | 338° |
| 2026-04-26 03:54 | 36.52615 | -119.67277 | 38494 ft | 486 kts | 338° |
| 2026-04-26 03:54 | 36.55821 | -119.68597 | 38730 ft | 485 kts | 338° |
| 2026-04-26 03:55 | 36.59021 | -119.69916 | 38939 ft | 484 kts | 338° |
| 2026-04-26 03:55 | 36.62262 | -119.71032 | 39167 ft | 483 kts | 341° |
| 2026-04-26 03:55 | 36.65482 | -119.72116 | 39374 ft | 481 kts | 340° |
| 2026-04-26 03:55 | 36.68738 | -119.73235 | 39591 ft | 480 kts | 340° |
| 2026-04-26 03:56 | 36.71954 | -119.74324 | 39790 ft | 478 kts | 341° |
| 2026-04-26 03:56 | 36.75123 | -119.75381 | 39995 ft | 477 kts | 341° |
| 2026-04-26 03:56 | 36.78325 | -119.76457 | 40209 ft | 475 kts | 340° |
| 2026-04-26 03:56 | 36.81506 | -119.77539 | 40389 ft | 474 kts | 340° |
| 2026-04-26 03:57 | 36.84692 | -119.78621 | 40466 ft | 476 kts | 340° |
| 2026-04-26 03:57 | 36.91119 | -119.80793 | 40592 ft | 479 kts | 340° |
| 2026-04-26 03:58 | 36.97579 | -119.82988 | 40735 ft | 482 kts | 340° |
| 2026-04-26 03:58 | 37.04073 | -119.85194 | 40892 ft | 485 kts | 340° |
| 2026-04-26 03:59 | 37.10581 | -119.87411 | 40938 ft | 490 kts | 340° |
| 2026-04-26 03:59 | 37.17204 | -119.89670 | 40935 ft | 496 kts | 341° |
| 2026-04-26 04:00 | 37.23906 | -119.91960 | 40933 ft | 502 kts | 341° |
| 2026-04-26 04:00 | 37.30683 | -119.94281 | 40922 ft | 507 kts | 341° |
| 2026-04-26 04:01 | 37.37524 | -119.96627 | 40916 ft | 512 kts | 341° |
| 2026-04-26 04:01 | 37.44427 | -119.99000 | 40915 ft | 517 kts | 341° |
| 2026-04-26 04:02 | 37.51387 | -120.01396 | 40920 ft | 519 kts | 341° |
| 2026-04-26 04:02 | 37.58346 | -120.03796 | 40912 ft | 518 kts | 341° |
| 2026-04-26 04:03 | 37.65247 | -120.06182 | 40910 ft | 517 kts | 341° |
| 2026-04-26 04:03 | 37.72180 | -120.08583 | 40912 ft | 516 kts | 341° |
| 2026-04-26 04:04 | 37.79098 | -120.10984 | 40908 ft | 516 kts | 341° |
| 2026-04-26 04:04 | 37.86028 | -120.13393 | 40912 ft | 516 kts | 341° |
| 2026-04-26 04:05 | 37.92954 | -120.15806 | 40905 ft | 515 kts | 341° |
| 2026-04-26 04:05 | 37.99866 | -120.18219 | 40904 ft | 514 kts | 341° |
| 2026-04-26 04:06 | 38.06708 | -120.20612 | 40902 ft | 514 kts | 341° |
| 2026-04-26 04:06 | 38.13600 | -120.23027 | 40909 ft | 513 kts | 341° |
| 2026-04-26 04:07 | 38.20481 | -120.25443 | 40901 ft | 513 kts | 341° |
| 2026-04-26 04:07 | 38.27366 | -120.27865 | 40901 ft | 513 kts | 341° |
| 2026-04-26 04:08 | 38.34251 | -120.30292 | 40902 ft | 513 kts | 341° |
| 2026-04-26 04:08 | 38.41139 | -120.32725 | 40891 ft | 513 kts | 341° |
| 2026-04-26 04:09 | 38.48022 | -120.35161 | 40905 ft | 513 kts | 341° |
| 2026-04-26 04:09 | 38.54859 | -120.37585 | 40901 ft | 512 kts | 341° |
| 2026-04-26 04:10 | 38.61748 | -120.40033 | 40904 ft | 513 kts | 341° |
| 2026-04-26 04:10 | 38.68469 | -120.42425 | 40907 ft | 512 kts | 341° |
| 2026-04-26 04:11 | 38.75328 | -120.44871 | 40916 ft | 511 kts | 341° |
| 2026-04-26 04:11 | 38.82177 | -120.47319 | 40912 ft | 511 kts | 341° |
| 2026-04-26 04:12 | 38.89029 | -120.49773 | 40905 ft | 511 kts | 341° |
| 2026-04-26 04:12 | 38.95876 | -120.52231 | 40898 ft | 511 kts | 341° |
| 2026-04-26 04:13 | 39.02678 | -120.54676 | 40891 ft | 511 kts | 341° |
| 2026-04-26 04:13 | 39.09523 | -120.57142 | 40901 ft | 510 kts | 341° |
| 2026-04-26 04:14 | 39.16361 | -120.59611 | 40909 ft | 509 kts | 341° |
| 2026-04-26 04:14 | 39.23196 | -120.62083 | 40912 ft | 510 kts | 341° |
| 2026-04-26 04:15 | 39.30021 | -120.64557 | 40919 ft | 509 kts | 341° |
| 2026-04-26 04:15 | 39.36836 | -120.67033 | 40915 ft | 508 kts | 341° |
| 2026-04-26 04:16 | 39.43605 | -120.69496 | 40903 ft | 508 kts | 341° |
| 2026-04-26 04:16 | 39.50400 | -120.71974 | 40890 ft | 507 kts | 341° |
| 2026-04-26 04:17 | 39.57197 | -120.74458 | 40874 ft | 507 kts | 341° |
| 2026-04-26 04:17 | 39.63997 | -120.76948 | 40863 ft | 508 kts | 341° |
| 2026-04-26 04:18 | 39.70800 | -120.79444 | 40871 ft | 508 kts | 341° |
| 2026-04-26 04:18 | 39.77594 | -120.81942 | 40869 ft | 507 kts | 341° |
| 2026-04-26 04:19 | 39.84348 | -120.84430 | 40862 ft | 507 kts | 341° |
| 2026-04-26 04:19 | 39.91139 | -120.86937 | 40860 ft | 507 kts | 341° |
| 2026-04-26 04:20 | 39.97938 | -120.89452 | 40858 ft | 507 kts | 341° |
| 2026-04-26 04:20 | 40.04727 | -120.91970 | 40854 ft | 507 kts | 341° |
| 2026-04-26 04:21 | 40.11466 | -120.94472 | 40850 ft | 507 kts | 341° |
| 2026-04-26 04:21 | 40.18250 | -120.96998 | 40849 ft | 506 kts | 341° |
| 2026-04-26 04:22 | 40.25020 | -120.99523 | 40844 ft | 505 kts | 341° |
| 2026-04-26 04:22 | 40.31783 | -121.02052 | 40843 ft | 505 kts | 341° |
| 2026-04-26 04:23 | 40.37402 | -121.04156 | 40842 ft | 505 kts | 341° |
| 2026-04-26 04:23 | 40.44161 | -121.06692 | 40841 ft | 505 kts | 341° |
| 2026-04-26 04:24 | 40.50911 | -121.09230 | 40853 ft | 504 kts | 341° |
| 2026-04-26 04:24 | 40.58755 | -121.12186 | 40844 ft | 504 kts | 341° |
| 2026-04-26 04:25 | 40.64396 | -121.14316 | 40845 ft | 502 kts | 341° |
| 2026-04-26 04:25 | 40.71116 | -121.16859 | 40846 ft | 503 kts | 341° |
| 2026-04-26 04:26 | 40.77807 | -121.19397 | 40844 ft | 503 kts | 341° |
| 2026-04-26 04:26 | 40.84531 | -121.21951 | 40837 ft | 503 kts | 341° |
| 2026-04-26 04:27 | 40.91246 | -121.24508 | 40837 ft | 502 kts | 341° |
| 2026-04-26 04:27 | 40.97959 | -121.27070 | 40833 ft | 502 kts | 341° |
| 2026-04-26 04:28 | 41.04669 | -121.29636 | 40831 ft | 502 kts | 341° |
| 2026-04-26 04:28 | 41.11389 | -121.32211 | 40827 ft | 503 kts | 341° |
| 2026-04-26 04:29 | 41.18103 | -121.34789 | 40824 ft | 502 kts | 341° |
| 2026-04-26 04:29 | 41.24824 | -121.37376 | 40811 ft | 502 kts | 341° |
| 2026-04-26 04:30 | 41.31495 | -121.39948 | 40807 ft | 502 kts | 341° |
| 2026-04-26 04:30 | 41.38254 | -121.42561 | 40800 ft | 503 kts | 341° |
| 2026-04-26 04:31 | 41.44929 | -121.45146 | 40798 ft | 502 kts | 341° |
| 2026-04-26 04:31 | 41.51641 | -121.47752 | 40788 ft | 502 kts | 341° |
| 2026-04-26 04:32 | 41.58345 | -121.50360 | 40789 ft | 502 kts | 341° |
| 2026-04-26 04:32 | 41.65057 | -121.52977 | 40783 ft | 502 kts | 341° |
| 2026-04-26 04:33 | 41.71755 | -121.55594 | 40775 ft | 501 kts | 341° |
| 2026-04-26 04:33 | 41.78445 | -121.58213 | 40779 ft | 501 kts | 341° |
| 2026-04-26 04:34 | 41.85114 | -121.60830 | 40789 ft | 502 kts | 341° |
| 2026-04-26 04:34 | 41.91826 | -121.63469 | 40795 ft | 501 kts | 341° |